createdAt,value
2022-10-22T00:00:59.156Z,4.60
2022-10-22T00:03:26.825Z,4.70
2022-10-22T00:05:54.717Z,4.80
2022-10-22T00:08:22.392Z,5.05
2022-10-22T00:10:50.223Z,4.30
2022-10-22T00:13:17.946Z,4.38
2022-10-22T00:15:45.604Z,4.97
2022-10-22T00:18:13.402Z,5.10
2022-10-22T00:20:41.189Z,4.83
2022-10-22T00:23:09.522Z,4.63
2022-10-22T00:25:37.232Z,5.15
2022-10-22T00:28:05.059Z,4.53
2022-10-22T00:30:32.733Z,4.30
2022-10-22T00:33:00.502Z,4.32
2022-10-22T00:35:28.370Z,4.17
2022-10-22T00:37:56.010Z,4.70
2022-10-22T00:40:23.721Z,4.35
2022-10-22T00:42:51.360Z,3.80
2022-10-22T00:45:28.692Z,4.13
2022-10-22T00:47:57.886Z,4.03
2022-10-22T00:50:27.736Z,3.97
2022-10-22T00:52:55.506Z,3.77
2022-10-22T00:55:23.451Z,3.45
2022-10-22T00:57:51.153Z,3.55
2022-10-22T01:00:19.028Z,4.33
2022-10-22T01:02:46.807Z,3.50
2022-10-22T01:05:14.689Z,4.03
2022-10-22T01:07:43.360Z,3.72
2022-10-22T01:10:23.788Z,3.43
2022-10-22T01:12:51.489Z,3.95
2022-10-22T01:15:23.640Z,3.47
2022-10-22T01:17:57.058Z,3.53
2022-10-22T01:20:40.201Z,3.45
2022-10-22T01:23:07.901Z,3.50
2022-10-22T01:25:36.515Z,3.30
2022-10-22T01:28:10.541Z,3.85
2022-10-22T01:30:38.238Z,3.45
2022-10-22T01:33:06.606Z,3.00
2022-10-22T01:35:35.698Z,3.30
2022-10-22T01:38:04.978Z,3.47
2022-10-22T01:40:32.632Z,3.08
2022-10-22T01:43:01.074Z,3.60
2022-10-22T01:45:29.807Z,3.70
2022-10-22T01:48:16.309Z,4.53
2022-10-22T01:51:02.587Z,4.90
2022-10-22T01:53:30.341Z,4.20
2022-10-22T01:56:10.917Z,4.70
2022-10-22T01:59:01.908Z,4.07
2022-10-22T02:01:29.533Z,4.30
2022-10-22T02:03:59.366Z,3.97
2022-10-22T02:06:27.026Z,3.42
2022-10-22T02:08:54.852Z,3.80
2022-10-22T02:11:22.586Z,3.38
2022-10-22T02:13:51.505Z,3.55
2022-10-22T02:16:23.839Z,3.13
2022-10-22T02:18:52.150Z,3.13
2022-10-22T02:21:19.897Z,3.63
2022-10-22T02:23:47.528Z,3.22
2022-10-22T02:26:23.267Z,3.40
2022-10-22T02:29:03.231Z,3.25
2022-10-22T02:31:32.254Z,2.70
2022-10-22T02:34:01.434Z,3.20
2022-10-22T02:36:29.162Z,2.92
2022-10-22T02:38:56.805Z,2.78
2022-10-22T02:41:24.858Z,3.30
2022-10-22T02:43:54.844Z,3.35
2022-10-22T02:46:22.626Z,3.17
2022-10-22T02:48:50.324Z,3.10
2022-10-22T02:51:18.076Z,2.70
2022-10-22T02:53:45.780Z,2.80
2022-10-22T02:56:14.322Z,3.33
2022-10-22T02:58:42.067Z,3.20
2022-10-22T03:01:12.372Z,2.90
2022-10-22T03:03:43.009Z,2.85
2022-10-22T03:06:10.682Z,3.03
2022-10-22T03:08:38.456Z,3.15
2022-10-22T03:11:06.165Z,3.20
2022-10-22T03:13:33.882Z,3.40
2022-10-22T03:16:01.569Z,2.97
2022-10-22T03:18:30.579Z,3.13
2022-10-22T03:21:09.259Z,3.22
2022-10-22T03:23:36.960Z,3.00
2022-10-22T03:26:04.617Z,2.90
2022-10-22T03:28:32.343Z,3.28
2022-10-22T03:31:00.004Z,4.20
2022-10-22T03:33:27.766Z,3.80
2022-10-22T03:35:55.482Z,3.15
2022-10-22T03:38:23.145Z,3.55
2022-10-22T03:40:50.860Z,3.63
2022-10-22T03:43:18.545Z,3.10
2022-10-22T03:45:46.295Z,3.40
2022-10-22T03:48:14.371Z,3.37
2022-10-22T03:50:42.104Z,3.20
2022-10-22T03:53:10.739Z,3.25
2022-10-22T03:55:38.625Z,2.93
2022-10-22T03:58:06.499Z,2.67
2022-10-22T04:00:35.315Z,3.05
2022-10-22T04:03:03.032Z,2.55
2022-10-22T04:05:30.685Z,2.87
2022-10-22T04:07:58.401Z,2.90
2022-10-22T04:10:26.094Z,2.88
2022-10-22T04:12:53.829Z,2.90
2022-10-22T04:15:21.468Z,2.65
2022-10-22T04:17:49.201Z,2.60
2022-10-22T04:20:16.961Z,2.80
2022-10-22T04:22:44.689Z,2.78
2022-10-22T04:25:12.324Z,2.75
2022-10-22T04:27:40.296Z,2.75
2022-10-22T04:30:08.430Z,2.80
2022-10-22T04:32:36.257Z,3.05
2022-10-22T04:35:04.096Z,2.60
2022-10-22T04:37:33.017Z,2.67
2022-10-22T04:40:00.848Z,3.13
2022-10-22T04:42:29.635Z,3.08
2022-10-22T04:44:57.410Z,2.93
2022-10-22T04:47:25.087Z,2.67
2022-10-22T04:49:52.810Z,3.03
2022-10-22T04:52:20.459Z,3.20
2022-10-22T04:54:48.233Z,3.43
2022-10-22T04:57:15.941Z,2.75
2022-10-22T04:59:43.657Z,3.00
2022-10-22T05:02:11.307Z,3.30
2022-10-22T05:04:39.043Z,3.40
2022-10-22T05:07:06.685Z,3.17
2022-10-22T05:09:34.408Z,3.67
2022-10-22T05:12:02.090Z,2.88
2022-10-22T05:14:29.859Z,3.28
2022-10-22T05:16:57.605Z,2.85
2022-10-22T05:19:26.080Z,3.50
2022-10-22T05:21:54.385Z,3.08
2022-10-22T05:24:22.310Z,3.78
2022-10-22T05:26:53.442Z,3.97
2022-10-22T05:29:21.201Z,2.70
2022-10-22T05:31:48.910Z,3.45
2022-10-22T05:34:16.675Z,3.30
2022-10-22T05:36:44.419Z,3.67
2022-10-22T05:39:12.205Z,3.35
2022-10-22T05:41:41.663Z,3.10
2022-10-22T05:44:11.451Z,3.33
2022-10-22T05:46:39.089Z,2.92
2022-10-22T05:49:07.099Z,3.10
2022-10-22T05:51:35.165Z,3.33
2022-10-22T05:54:03.375Z,3.13
2022-10-22T05:56:32.172Z,3.55
2022-10-22T05:59:00.110Z,3.23
2022-10-22T06:01:28.773Z,3.40
2022-10-22T06:03:57.057Z,3.33
2022-10-22T06:06:41.841Z,3.38
2022-10-22T06:09:18.618Z,3.67
2022-10-22T06:11:46.628Z,4.03
2022-10-22T06:14:14.495Z,4.05
2022-10-22T06:16:42.316Z,3.67
2022-10-22T06:19:11.130Z,3.33
2022-10-22T06:21:38.873Z,3.35
2022-10-22T06:24:06.704Z,3.27
2022-10-22T06:26:34.492Z,3.42
2022-10-22T06:29:02.167Z,3.63
2022-10-22T06:31:36.638Z,3.22
2022-10-22T06:34:05.077Z,3.37
2022-10-22T06:36:32.895Z,3.25
2022-10-22T06:39:00.604Z,2.95
2022-10-22T06:41:28.984Z,3.20
2022-10-22T06:44:00.773Z,3.75
2022-10-22T06:46:28.489Z,3.20
2022-10-22T06:48:57.085Z,3.90
2022-10-22T06:51:24.818Z,2.80
2022-10-22T06:53:52.526Z,3.38
2022-10-22T06:56:20.822Z,3.00
2022-10-22T06:58:49.060Z,3.50
2022-10-22T07:01:17.916Z,2.85
2022-10-22T07:03:45.606Z,3.22
2022-10-22T07:06:14.632Z,3.03
2022-10-22T07:08:42.807Z,2.85
2022-10-22T07:11:11.630Z,3.00
2022-10-22T07:13:39.298Z,3.00
2022-10-22T07:16:07.525Z,3.10
2022-10-22T07:18:35.375Z,2.92
2022-10-22T07:21:03.167Z,2.88
2022-10-22T07:23:31.036Z,2.50
2022-10-22T07:25:59.303Z,2.78
2022-10-22T07:28:28.174Z,2.92
2022-10-22T07:30:55.847Z,2.97
2022-10-22T07:33:23.587Z,2.67
2022-10-22T07:35:51.308Z,3.10
2022-10-22T07:38:19.072Z,2.78
2022-10-22T07:40:46.793Z,3.30
2022-10-22T07:43:14.544Z,2.55
2022-10-22T07:45:42.326Z,3.10
2022-10-22T07:48:10.023Z,3.03
2022-10-22T07:50:37.758Z,3.70
2022-10-22T07:53:05.507Z,2.95
2022-10-22T07:55:33.517Z,3.63
2022-10-22T07:58:01.236Z,3.60
2022-10-22T08:00:28.995Z,3.40
2022-10-22T08:02:56.628Z,3.40
2022-10-22T08:05:24.434Z,2.80
2022-10-22T08:07:52.190Z,3.88
2022-10-22T08:10:20.015Z,2.38
2022-10-22T08:12:47.781Z,3.17
2022-10-22T08:15:15.686Z,3.58
2022-10-22T08:17:44.078Z,2.88
2022-10-22T08:20:12.252Z,3.70
2022-10-22T08:22:39.991Z,3.00
2022-10-22T08:25:07.810Z,2.97
2022-10-22T08:27:35.562Z,2.70
2022-10-22T08:30:03.351Z,2.60
2022-10-22T08:32:31.127Z,2.60
2022-10-22T08:34:58.871Z,2.60
2022-10-22T08:37:26.577Z,2.57
2022-10-22T08:39:54.300Z,2.63
2022-10-22T08:42:21.967Z,2.95
2022-10-22T08:44:52.493Z,2.07
2022-10-22T08:47:38.556Z,2.50
2022-10-22T08:50:06.714Z,2.55
2022-10-22T08:52:34.373Z,3.33
2022-10-22T08:55:02.785Z,3.00
2022-10-22T08:57:36.601Z,3.25
2022-10-22T09:00:04.321Z,2.85
2022-10-22T09:02:50.434Z,2.83
2022-10-22T09:05:20.919Z,2.45
2022-10-22T09:07:51.657Z,2.60
2022-10-22T09:10:23.273Z,3.20
2022-10-22T09:12:52.401Z,2.20
2022-10-22T09:15:20.293Z,3.13
2022-10-22T09:18:01.936Z,2.20
2022-10-22T09:20:29.996Z,2.47
2022-10-22T09:23:01.953Z,2.45
2022-10-22T09:25:30.836Z,2.20
2022-10-22T09:27:58.583Z,2.80
2022-10-22T09:30:27.419Z,1.73
2022-10-22T09:33:01.980Z,2.17
2022-10-22T09:35:29.728Z,2.50
2022-10-22T09:37:57.602Z,2.10
2022-10-22T09:40:25.312Z,2.15
2022-10-22T09:42:53.032Z,2.10
2022-10-22T09:45:24.587Z,1.90
2022-10-22T09:48:01.756Z,1.92
2022-10-22T09:50:38.193Z,1.90
2022-10-22T09:53:18.993Z,2.20
2022-10-22T09:55:50.322Z,2.10
2022-10-22T09:58:18.125Z,1.90
2022-10-22T10:00:46.567Z,1.80
2022-10-22T10:03:22.995Z,1.73
2022-10-22T10:05:52.929Z,1.40
2022-10-22T10:08:20.743Z,2.00
2022-10-22T10:11:08.588Z,2.05
2022-10-22T10:13:36.836Z,2.03
2022-10-22T10:16:07.248Z,2.00
2022-10-22T10:18:53.403Z,1.90
2022-10-22T10:21:40.118Z,2.00
2022-10-22T10:24:20.327Z,1.77
2022-10-22T10:26:52.574Z,1.63
2022-10-22T10:29:23.032Z,1.65
2022-10-22T10:31:58.261Z,2.80
2022-10-22T10:34:44.615Z,2.20
2022-10-22T10:37:17.427Z,1.73
2022-10-22T10:39:48.150Z,2.78
2022-10-22T10:42:23.903Z,2.28
2022-10-22T10:45:01.082Z,1.80
2022-10-22T10:47:35.549Z,1.80
2022-10-22T10:50:24.711Z,1.73
2022-10-22T10:53:18.420Z,2.20
2022-10-22T10:55:49.137Z,2.20
2022-10-22T10:58:23.334Z,1.98
2022-10-22T11:00:58.352Z,2.00
2022-10-22T11:03:40.949Z,1.77
2022-10-22T11:06:09.694Z,1.80
2022-10-22T11:08:38.247Z,2.30
2022-10-22T11:11:09.197Z,1.53
2022-10-22T11:13:53.807Z,2.08
2022-10-22T11:16:25.740Z,1.98
2022-10-22T11:18:53.466Z,2.10
2022-10-22T11:21:26.508Z,2.15
2022-10-22T11:24:09.502Z,2.10
2022-10-22T11:26:41.636Z,1.90
2022-10-22T11:29:11.801Z,2.22
2022-10-22T11:31:39.393Z,1.80
2022-10-22T11:34:32.752Z,1.80
2022-10-22T11:37:00.597Z,1.87
2022-10-22T11:39:48.525Z,1.75
2022-10-22T11:42:39.157Z,1.50
2022-10-22T11:45:16.037Z,1.23
2022-10-22T11:47:52.625Z,1.20
2022-10-22T11:50:25.584Z,1.60
2022-10-22T11:53:01.442Z,1.50
2022-10-22T11:55:46.015Z,1.75
2022-10-22T11:58:33.215Z,2.45
2022-10-22T12:01:03.714Z,1.83
2022-10-22T12:03:34.782Z,2.00
2022-10-22T12:06:15.892Z,2.40
2022-10-22T12:08:47.539Z,2.00
2022-10-22T12:11:15.880Z,2.27
2022-10-22T12:14:02.040Z,2.50
2022-10-22T12:16:58.933Z,2.50
2022-10-22T12:19:38.494Z,2.60
2022-10-22T12:22:25.073Z,2.83
2022-10-22T12:24:57.820Z,2.70
2022-10-22T12:27:35.431Z,2.90
2022-10-22T12:30:03.439Z,3.03
2022-10-22T12:32:34.925Z,3.17
2022-10-22T12:35:05.433Z,4.15
2022-10-22T12:37:33.078Z,2.63
2022-10-22T12:40:00.710Z,3.00
2022-10-22T12:42:29.383Z,2.35
2022-10-22T12:44:57.205Z,2.38
2022-10-22T12:47:24.846Z,1.95
2022-10-22T12:49:52.533Z,2.00
2022-10-22T12:52:21.466Z,1.90
2022-10-22T12:54:50.024Z,1.73
2022-10-22T12:57:18.289Z,1.40
2022-10-22T12:59:49.828Z,1.85
2022-10-22T13:02:21.882Z,1.57
2022-10-22T13:05:08.772Z,1.98
2022-10-22T13:07:39.875Z,1.85
2022-10-22T13:10:18.550Z,2.20
2022-10-22T13:12:46.983Z,2.40
2022-10-22T13:15:20.996Z,2.25
2022-10-22T13:17:49.984Z,2.35
2022-10-22T13:20:17.687Z,2.30
2022-10-22T13:23:01.309Z,2.80
2022-10-22T13:25:29.357Z,2.97
2022-10-22T13:27:58.257Z,2.53
2022-10-22T13:30:25.928Z,2.58
2022-10-22T13:32:57.129Z,2.30
2022-10-22T13:35:25.892Z,2.50
2022-10-22T13:37:53.613Z,1.90
2022-10-22T13:40:21.547Z,2.63
2022-10-22T13:42:49.227Z,1.80
2022-10-22T13:45:16.948Z,2.70
2022-10-22T13:47:46.342Z,1.75
2022-10-22T13:50:15.024Z,2.10
2022-10-22T13:52:43.604Z,3.30
2022-10-22T13:55:21.587Z,2.10
2022-10-22T13:57:49.787Z,2.80
2022-10-22T14:00:20.569Z,1.65
2022-10-22T14:02:48.933Z,2.90
2022-10-22T14:05:17.427Z,2.75
2022-10-22T14:07:45.087Z,1.90
2022-10-22T14:10:16.611Z,0.97
2022-10-22T14:12:44.264Z,1.67
2022-10-22T14:15:15.086Z,0.73
2022-10-22T14:17:43.822Z,0.97
2022-10-22T14:20:15.813Z,0.65
2022-10-22T14:22:43.483Z,1.20
2022-10-22T14:25:12.686Z,1.23
2022-10-22T14:27:40.532Z,1.70
2022-10-22T14:30:08.641Z,1.77
2022-10-22T14:32:36.385Z,1.50
2022-10-22T14:35:04.120Z,1.03
2022-10-22T14:37:31.840Z,1.67
2022-10-22T14:40:02.804Z,1.55
2022-10-22T14:42:30.556Z,1.10
2022-10-22T14:44:58.239Z,0.90
2022-10-22T14:47:25.828Z,1.52
2022-10-22T14:49:53.490Z,0.80
2022-10-22T14:52:21.075Z,0.93
2022-10-22T14:54:49.086Z,0.85
2022-10-22T14:57:16.926Z,0.85
2022-10-22T14:59:44.602Z,0.90
2022-10-22T15:02:14.838Z,1.02
2022-10-22T15:04:42.558Z,0.90
2022-10-22T15:07:10.192Z,0.90
2022-10-22T15:09:37.879Z,0.88
2022-10-22T15:12:05.593Z,0.82
2022-10-22T15:14:33.195Z,1.30
2022-10-22T15:17:00.964Z,0.77
2022-10-22T15:19:28.951Z,1.00
2022-10-22T15:21:56.695Z,1.50
2022-10-22T15:24:24.278Z,0.90
2022-10-22T15:26:54.131Z,0.80
2022-10-22T15:29:21.745Z,0.70
2022-10-22T15:31:49.442Z,0.50
2022-10-22T15:34:29.696Z,0.80
2022-10-22T15:36:57.957Z,0.85
2022-10-22T15:39:25.606Z,0.63
2022-10-22T15:41:53.315Z,0.80
2022-10-22T15:44:27.543Z,0.70
2022-10-22T15:46:55.394Z,1.70
2022-10-22T15:49:23.452Z,0.90
2022-10-22T15:51:51.234Z,1.00
2022-10-22T15:54:19.812Z,1.08
2022-10-22T15:56:47.754Z,1.17
2022-10-22T15:59:15.925Z,1.40
2022-10-22T16:01:43.624Z,1.90
2022-10-22T16:04:11.508Z,1.48
2022-10-22T16:06:39.993Z,1.20
2022-10-22T16:09:09.951Z,1.20
2022-10-22T16:11:37.989Z,1.23
2022-10-22T16:14:06.665Z,0.90
2022-10-22T16:16:34.932Z,1.25
2022-10-22T16:19:02.535Z,1.63
2022-10-22T16:21:30.361Z,1.70
2022-10-22T16:24:00.190Z,1.23
2022-10-22T16:26:31.298Z,1.42
2022-10-22T16:28:59.082Z,1.23
2022-10-22T16:31:26.764Z,1.40
2022-10-22T16:33:58.119Z,1.48
2022-10-22T16:36:25.783Z,1.13
2022-10-22T16:38:53.434Z,1.20
2022-10-22T16:41:21.926Z,1.58
2022-10-22T16:43:50.064Z,1.35
2022-10-22T16:46:18.421Z,1.37
2022-10-22T16:48:49.301Z,1.02
2022-10-22T16:51:17.733Z,1.00
2022-10-22T16:53:45.586Z,1.23
2022-10-22T16:56:13.865Z,1.02
2022-10-22T16:58:45.778Z,1.10
2022-10-22T17:01:17.698Z,1.20
2022-10-22T17:03:45.857Z,1.00
2022-10-22T17:06:13.613Z,1.10
2022-10-22T17:08:41.471Z,1.35
2022-10-22T17:11:12.981Z,1.10
2022-10-22T17:13:43.593Z,1.33
2022-10-22T17:16:12.662Z,1.00
2022-10-22T17:18:40.955Z,1.13
2022-10-22T17:21:09.292Z,0.80
2022-10-22T17:23:37.261Z,1.30
2022-10-22T17:26:07.422Z,1.15
2022-10-22T17:28:38.810Z,1.20
2022-10-22T17:31:07.482Z,1.08
2022-10-22T17:33:36.894Z,1.30
2022-10-22T17:36:10.946Z,1.00
2022-10-22T17:38:39.547Z,1.73
2022-10-22T17:41:08.721Z,1.92
2022-10-22T17:43:38.262Z,1.42
2022-10-22T17:46:10.964Z,1.60
2022-10-22T17:48:38.642Z,1.70
2022-10-22T17:51:07.459Z,1.95
2022-10-22T17:53:35.182Z,1.73
2022-10-22T17:56:03.498Z,1.30
2022-10-22T17:58:34.229Z,1.33
2022-10-22T18:01:02.152Z,1.80
2022-10-22T18:03:29.914Z,2.03
2022-10-22T18:05:57.715Z,2.10
2022-10-22T18:08:25.722Z,1.63
2022-10-22T18:10:53.483Z,1.48
2022-10-22T18:13:21.217Z,1.40
2022-10-22T18:15:54.980Z,1.58
2022-10-22T18:18:23.375Z,1.97
2022-10-22T18:20:51.824Z,1.40
2022-10-22T18:23:20.289Z,1.50
2022-10-22T18:25:48.887Z,1.83
2022-10-22T18:28:18.479Z,1.73
2022-10-22T18:30:46.591Z,2.13
2022-10-22T18:33:16.448Z,1.63
2022-10-22T18:35:47.692Z,1.33
2022-10-22T18:38:16.188Z,1.58
2022-10-22T18:40:47.541Z,1.92
2022-10-22T18:43:15.615Z,1.57
2022-10-22T18:45:47.161Z,1.65
2022-10-22T18:48:17.129Z,1.67
2022-10-22T18:50:45.070Z,1.73
2022-10-22T18:53:12.802Z,1.92
2022-10-22T18:55:40.778Z,1.38
2022-10-22T18:58:08.726Z,1.83
2022-10-22T19:00:39.224Z,1.23
2022-10-22T19:03:07.315Z,1.75
2022-10-22T19:05:35.097Z,1.70
2022-10-22T19:08:05.015Z,1.80
2022-10-22T19:10:35.784Z,2.13
2022-10-22T19:13:03.514Z,1.83
2022-10-22T19:15:31.216Z,1.80
2022-10-22T19:17:59.185Z,1.45
2022-10-22T19:20:27.639Z,1.60
2022-10-22T19:22:56.760Z,1.45
2022-10-22T19:25:25.519Z,1.92
2022-10-22T19:27:54.008Z,1.60
2022-10-22T19:30:23.633Z,1.50
2022-10-22T19:32:51.370Z,2.10
2022-10-22T19:35:19.145Z,2.03
2022-10-22T19:37:48.415Z,1.90
2022-10-22T19:40:16.488Z,1.87
2022-10-22T19:42:47.139Z,2.90
2022-10-22T19:45:15.909Z,1.52
2022-10-22T19:47:43.602Z,1.97
2022-10-22T19:50:11.353Z,2.25
2022-10-22T19:52:39.417Z,1.65
2022-10-22T19:55:07.409Z,1.88
2022-10-22T19:57:35.155Z,2.13
2022-10-22T20:00:02.808Z,1.77
2022-10-22T20:02:30.535Z,1.65
2022-10-22T20:04:58.212Z,2.00
2022-10-22T20:07:26.024Z,2.00
2022-10-22T20:09:53.890Z,1.88
2022-10-22T20:12:21.618Z,1.83
2022-10-22T20:14:49.387Z,2.75
2022-10-22T20:17:17.145Z,2.05
2022-10-22T20:19:44.972Z,2.15
2022-10-22T20:22:17.982Z,1.97
2022-10-22T20:24:46.665Z,1.63
2022-10-22T20:27:15.384Z,1.77
2022-10-22T20:29:43.098Z,1.70
2022-10-22T20:32:10.750Z,2.05
2022-10-22T20:34:39.644Z,2.10
2022-10-22T20:37:07.313Z,2.10
2022-10-22T20:39:35.058Z,2.42
2022-10-22T20:42:02.762Z,2.03
2022-10-22T20:44:30.424Z,1.95
2022-10-22T20:49:32.958Z,1.50
2022-10-22T20:52:00.746Z,2.13
2022-10-22T20:54:28.985Z,2.00
2022-10-22T20:56:56.804Z,2.03
2022-10-22T20:59:24.615Z,2.22
2022-10-22T21:01:52.965Z,2.03
2022-10-22T21:04:21.156Z,3.00
2022-10-22T21:06:50.398Z,2.30
2022-10-22T21:09:18.208Z,1.65
2022-10-22T21:11:46.138Z,2.53
2022-10-22T21:14:14.831Z,1.95
2022-10-22T21:16:43.214Z,2.17
2022-10-22T21:19:10.897Z,2.70
2022-10-22T21:21:38.631Z,2.05
2022-10-22T21:24:06.388Z,2.30
2022-10-22T21:26:36.913Z,2.00
2022-10-22T21:29:04.830Z,2.53
2022-10-22T21:31:32.476Z,2.22
2022-10-22T21:34:00.204Z,2.33
2022-10-22T21:36:27.887Z,1.67
2022-10-22T21:38:55.613Z,2.55
2022-10-22T21:41:23.793Z,2.22
2022-10-22T21:43:51.798Z,2.30
2022-10-22T21:46:20.305Z,2.20
2022-10-22T21:48:48.072Z,1.67
2022-10-22T21:51:19.263Z,2.07
2022-10-22T21:53:46.987Z,2.50
2022-10-22T21:56:16.044Z,2.47
2022-10-22T21:58:43.866Z,2.30
2022-10-22T22:01:11.697Z,2.30
2022-10-22T22:03:39.520Z,1.90
2022-10-22T22:06:07.397Z,2.05
2022-10-22T22:08:35.269Z,2.10
2022-10-22T22:11:03.522Z,1.92
2022-10-22T22:13:31.248Z,2.00
2022-10-22T22:16:05.566Z,2.00
2022-10-22T22:18:33.370Z,1.92
2022-10-22T22:21:01.291Z,2.13
2022-10-22T22:23:29.099Z,1.73
2022-10-22T22:26:00.260Z,1.90
2022-10-22T22:28:28.545Z,2.10
2022-10-22T22:30:56.201Z,1.70
2022-10-22T22:33:23.940Z,1.33
2022-10-22T22:35:51.621Z,2.08
2022-10-22T22:38:19.381Z,1.52
2022-10-22T22:40:47.099Z,1.20
2022-10-22T22:43:15.022Z,1.60
2022-10-22T22:45:42.859Z,1.65
2022-10-22T22:48:10.485Z,2.50
2022-10-22T22:50:38.179Z,2.23
2022-10-22T22:53:05.850Z,2.17
2022-10-22T22:55:33.601Z,1.92
2022-10-22T22:58:01.305Z,2.57
2022-10-22T23:00:28.972Z,2.63
2022-10-22T23:02:56.849Z,2.63
2022-10-22T23:05:24.496Z,3.13
2022-10-22T23:07:52.269Z,1.92
2022-10-22T23:10:19.933Z,2.50
2022-10-22T23:12:47.653Z,1.98
2022-10-22T23:15:15.375Z,2.37
2022-10-22T23:17:43.135Z,2.15
2022-10-22T23:20:11.097Z,1.77
2022-10-22T23:22:38.942Z,2.53
2022-10-22T23:25:07.022Z,2.25
2022-10-22T23:27:34.742Z,2.70
2022-10-22T23:30:02.436Z,2.33
2022-10-22T23:32:30.312Z,2.58
2022-10-22T23:34:58.102Z,2.13
2022-10-22T23:37:25.758Z,1.95
2022-10-22T23:39:53.477Z,2.00
2022-10-22T23:42:21.154Z,1.92
2022-10-22T23:44:48.874Z,1.50
2022-10-22T23:47:17.844Z,2.00
2022-10-22T23:49:45.564Z,2.33
2022-10-22T23:52:14.721Z,2.00
2022-10-22T23:54:42.580Z,2.13
2022-10-22T23:57:10.255Z,2.30
2022-10-22T23:59:37.997Z,1.92
